sensor_id;sensor_type;location;lat;lon;timestamp;temperature;humidity
37052;DHT22;22964;52.272;13.356;2023-07-28T00:01:26;21.20;79.60
37052;DHT22;22964;52.272;13.356;2023-07-28T00:03:52;21.20;79.50
37052;DHT22;22964;52.272;13.356;2023-07-28T00:06:17;21.30;79.50
37052;DHT22;22964;52.272;13.356;2023-07-28T00:08:43;21.30;79.70
37052;DHT22;22964;52.272;13.356;2023-07-28T00:11:14;21.30;79.60
37052;DHT22;22964;52.272;13.356;2023-07-28T00:13:40;21.30;80.00
37052;DHT22;22964;52.272;13.356;2023-07-28T00:16:07;21.30;79.60
37052;DHT22;22964;52.272;13.356;2023-07-28T00:18:33;21.30;79.70
37052;DHT22;22964;52.272;13.356;2023-07-28T00:20:58;21.30;79.70
37052;DHT22;22964;52.272;13.356;2023-07-28T00:23:24;21.30;79.60
37052;DHT22;22964;52.272;13.356;2023-07-28T00:25:50;21.30;79.60
37052;DHT22;22964;52.272;13.356;2023-07-28T00:28:16;21.30;79.70
37052;DHT22;22964;52.272;13.356;2023-07-28T00:30:41;21.30;79.50
37052;DHT22;22964;52.272;13.356;2023-07-28T00:33:07;21.30;79.60
37052;DHT22;22964;52.272;13.356;2023-07-28T00:35:33;21.30;79.70
37052;DHT22;22964;52.272;13.356;2023-07-28T00:37:59;21.30;79.70
37052;DHT22;22964;52.272;13.356;2023-07-28T00:40:25;21.30;79.90
37052;DHT22;22964;52.272;13.356;2023-07-28T00:42:51;21.30;79.80
37052;DHT22;22964;52.272;13.356;2023-07-28T00:45:17;21.30;79.80
37052;DHT22;22964;52.272;13.356;2023-07-28T00:47:43;21.40;79.90
37052;DHT22;22964;52.272;13.356;2023-07-28T00:50:09;21.40;79.80
37052;DHT22;22964;52.272;13.356;2023-07-28T00:52:36;21.30;79.90
37052;DHT22;22964;52.272;13.356;2023-07-28T00:55:02;21.40;79.90
37052;DHT22;22964;52.272;13.356;2023-07-28T00:57:28;21.30;79.80
37052;DHT22;22964;52.272;13.356;2023-07-28T00:59:54;21.40;80.10
37052;DHT22;22964;52.272;13.356;2023-07-28T01:02:20;21.40;80.00
37052;DHT22;22964;52.272;13.356;2023-07-28T01:04:47;21.40;80.00
37052;DHT22;22964;52.272;13.356;2023-07-28T01:07:17;21.40;80.10
37052;DHT22;22964;52.272;13.356;2023-07-28T01:09:52;21.40;80.20
37052;DHT22;22964;52.272;13.356;2023-07-28T01:12:23;21.40;80.40
37052;DHT22;22964;52.272;13.356;2023-07-28T01:14:49;21.40;80.20
37052;DHT22;22964;52.272;13.356;2023-07-28T01:17:15;21.40;80.20
37052;DHT22;22964;52.272;13.356;2023-07-28T01:19:41;21.40;80.30
37052;DHT22;22964;52.272;13.356;2023-07-28T01:22:20;21.40;80.40
37052;DHT22;22964;52.272;13.356;2023-07-28T01:27:25;21.40;80.70
37052;DHT22;22964;52.272;13.356;2023-07-28T01:29:51;21.40;80.40
37052;DHT22;22964;52.272;13.356;2023-07-28T01:32:17;21.40;80.60
37052;DHT22;22964;52.272;13.356;2023-07-28T01:34:43;21.40;80.50
37052;DHT22;22964;52.272;13.356;2023-07-28T01:37:09;21.50;81.50
37052;DHT22;22964;52.272;13.356;2023-07-28T01:39:34;21.40;80.60
37052;DHT22;22964;52.272;13.356;2023-07-28T01:42:00;21.50;80.70
37052;DHT22;22964;52.272;13.356;2023-07-28T01:44:26;21.50;80.80
37052;DHT22;22964;52.272;13.356;2023-07-28T01:46:51;21.50;80.70
37052;DHT22;22964;52.272;13.356;2023-07-28T01:49:17;21.50;80.80
37052;DHT22;22964;52.272;13.356;2023-07-28T01:51:43;21.50;80.60
37052;DHT22;22964;52.272;13.356;2023-07-28T01:54:08;21.50;80.80
37052;DHT22;22964;52.272;13.356;2023-07-28T01:56:34;21.50;80.80
37052;DHT22;22964;52.272;13.356;2023-07-28T01:59:00;21.50;80.70
37052;DHT22;22964;52.272;13.356;2023-07-28T02:01:25;21.50;80.70
37052;DHT22;22964;52.272;13.356;2023-07-28T02:03:51;21.60;80.80
37052;DHT22;22964;52.272;13.356;2023-07-28T02:06:17;21.60;80.80
37052;DHT22;22964;52.272;13.356;2023-07-28T02:08:43;21.60;80.80
37052;DHT22;22964;52.272;13.356;2023-07-28T02:11:08;21.60;80.80
37052;DHT22;22964;52.272;13.356;2023-07-28T02:13:34;21.60;80.80
37052;DHT22;22964;52.272;13.356;2023-07-28T02:16:02;21.60;80.70
37052;DHT22;22964;52.272;13.356;2023-07-28T02:18:28;21.60;80.70
37052;DHT22;22964;52.272;13.356;2023-07-28T02:20:53;21.60;80.80
37052;DHT22;22964;52.272;13.356;2023-07-28T02:23:19;21.60;80.70
37052;DHT22;22964;52.272;13.356;2023-07-28T02:25:45;21.60;80.70
37052;DHT22;22964;52.272;13.356;2023-07-28T02:28:11;21.60;80.70
37052;DHT22;22964;52.272;13.356;2023-07-28T02:30:37;21.70;80.80
37052;DHT22;22964;52.272;13.356;2023-07-28T02:33:05;21.60;80.80
37052;DHT22;22964;52.272;13.356;2023-07-28T02:35:31;21.70;80.80
37052;DHT22;22964;52.272;13.356;2023-07-28T02:37:57;21.60;80.80
37052;DHT22;22964;52.272;13.356;2023-07-28T02:40:23;21.70;80.80
37052;DHT22;22964;52.272;13.356;2023-07-28T02:42:49;21.70;80.90
37052;DHT22;22964;52.272;13.356;2023-07-28T02:45:15;21.70;80.80
37052;DHT22;22964;52.272;13.356;2023-07-28T02:47:41;21.70;80.90
37052;DHT22;22964;52.272;13.356;2023-07-28T02:50:06;21.70;81.00
37052;DHT22;22964;52.272;13.356;2023-07-28T02:52:32;21.70;80.90
37052;DHT22;22964;52.272;13.356;2023-07-28T02:54:58;21.70;81.00
37052;DHT22;22964;52.272;13.356;2023-07-28T02:57:24;21.70;80.90
37052;DHT22;22964;52.272;13.356;2023-07-28T02:59:49;21.70;81.00
37052;DHT22;22964;52.272;13.356;2023-07-28T03:02:15;21.70;81.00
37052;DHT22;22964;52.272;13.356;2023-07-28T03:04:41;21.70;81.10
37052;DHT22;22964;52.272;13.356;2023-07-28T03:07:16;21.70;81.00
37052;DHT22;22964;52.272;13.356;2023-07-28T03:09:45;21.70;81.00
37052;DHT22;22964;52.272;13.356;2023-07-28T03:12:11;21.70;81.20
37052;DHT22;22964;52.272;13.356;2023-07-28T03:14:37;21.70;81.00
37052;DHT22;22964;52.272;13.356;2023-07-28T03:17:03;21.70;81.10
37052;DHT22;22964;52.272;13.356;2023-07-28T03:19:28;21.70;81.10
37052;DHT22;22964;52.272;13.356;2023-07-28T03:21:54;21.70;81.10
37052;DHT22;22964;52.272;13.356;2023-07-28T03:24:20;21.70;81.10
37052;DHT22;22964;52.272;13.356;2023-07-28T03:26:46;21.70;81.20
37052;DHT22;22964;52.272;13.356;2023-07-28T03:29:12;21.70;81.20
37052;DHT22;22964;52.272;13.356;2023-07-28T03:31:37;21.70;81.10
37052;DHT22;22964;52.272;13.356;2023-07-28T03:34:04;21.70;81.20
37052;DHT22;22964;52.272;13.356;2023-07-28T03:36:31;21.70;81.20
37052;DHT22;22964;52.272;13.356;2023-07-28T03:38:57;21.70;81.20
37052;DHT22;22964;52.272;13.356;2023-07-28T03:41:24;21.70;81.10
37052;DHT22;22964;52.272;13.356;2023-07-28T03:43:50;21.70;81.20
37052;DHT22;22964;52.272;13.356;2023-07-28T03:46:15;21.80;81.20
37052;DHT22;22964;52.272;13.356;2023-07-28T03:48:41;21.80;81.10
37052;DHT22;22964;52.272;13.356;2023-07-28T03:51:07;21.80;81.20
37052;DHT22;22964;52.272;13.356;2023-07-28T03:53:32;21.80;81.20
37052;DHT22;22964;52.272;13.356;2023-07-28T03:56:01;21.80;81.20
37052;DHT22;22964;52.272;13.356;2023-07-28T03:58:27;21.80;81.20
37052;DHT22;22964;52.272;13.356;2023-07-28T04:00:53;21.80;81.10
37052;DHT22;22964;52.272;13.356;2023-07-28T04:03:19;21.80;81.20
37052;DHT22;22964;52.272;13.356;2023-07-28T04:05:45;21.80;81.10
37052;DHT22;22964;52.272;13.356;2023-07-28T04:08:17;21.80;81.10
37052;DHT22;22964;52.272;13.356;2023-07-28T04:10:43;21.80;81.10
37052;DHT22;22964;52.272;13.356;2023-07-28T04:13:09;21.80;81.10
37052;DHT22;22964;52.272;13.356;2023-07-28T04:15:35;21.90;81.20
37052;DHT22;22964;52.272;13.356;2023-07-28T04:18:00;21.90;81.10
37052;DHT22;22964;52.272;13.356;2023-07-28T04:20:26;21.90;81.10
37052;DHT22;22964;52.272;13.356;2023-07-28T04:22:52;21.90;81.10
37052;DHT22;22964;52.272;13.356;2023-07-28T04:25:17;21.90;81.10
37052;DHT22;22964;52.272;13.356;2023-07-28T04:27:46;21.90;81.10
37052;DHT22;22964;52.272;13.356;2023-07-28T04:30:12;21.90;81.10
37052;DHT22;22964;52.272;13.356;2023-07-28T04:32:38;21.90;81.20
37052;DHT22;22964;52.272;13.356;2023-07-28T04:35:12;21.90;81.20
37052;DHT22;22964;52.272;13.356;2023-07-28T04:37:42;21.90;81.20
37052;DHT22;22964;52.272;13.356;2023-07-28T04:40:11;21.90;81.20
37052;DHT22;22964;52.272;13.356;2023-07-28T04:42:38;21.90;81.20
37052;DHT22;22964;52.272;13.356;2023-07-28T04:45:06;21.90;81.30
37052;DHT22;22964;52.272;13.356;2023-07-28T04:47:32;22.00;81.30
37052;DHT22;22964;52.272;13.356;2023-07-28T04:49:58;21.90;81.30
37052;DHT22;22964;52.272;13.356;2023-07-28T04:52:44;21.90;81.30
37052;DHT22;22964;52.272;13.356;2023-07-28T04:55:29;21.90;81.40
37052;DHT22;22964;52.272;13.356;2023-07-28T04:57:56;21.90;81.40
37052;DHT22;22964;52.272;13.356;2023-07-28T05:00:30;21.90;81.50
37052;DHT22;22964;52.272;13.356;2023-07-28T05:02:56;21.90;81.60
37052;DHT22;22964;52.272;13.356;2023-07-28T05:05:23;21.90;81.70
37052;DHT22;22964;52.272;13.356;2023-07-28T05:07:48;21.90;81.80
37052;DHT22;22964;52.272;13.356;2023-07-28T05:10:15;21.90;81.80
37052;DHT22;22964;52.272;13.356;2023-07-28T05:12:40;21.90;81.70
37052;DHT22;22964;52.272;13.356;2023-07-28T05:15:06;22.00;81.80
37052;DHT22;22964;52.272;13.356;2023-07-28T05:17:37;22.00;81.80
37052;DHT22;22964;52.272;13.356;2023-07-28T05:20:31;22.00;81.80
37052;DHT22;22964;52.272;13.356;2023-07-28T05:23:26;22.00;81.80
37052;DHT22;22964;52.272;13.356;2023-07-28T05:25:51;22.00;81.80
37052;DHT22;22964;52.272;13.356;2023-07-28T05:28:17;22.00;81.80
37052;DHT22;22964;52.272;13.356;2023-07-28T05:30:44;22.00;81.80
37052;DHT22;22964;52.272;13.356;2023-07-28T05:33:10;22.00;81.90
37052;DHT22;22964;52.272;13.356;2023-07-28T05:35:45;22.10;81.90
37052;DHT22;22964;52.272;13.356;2023-07-28T05:38:11;22.00;81.90
37052;DHT22;22964;52.272;13.356;2023-07-28T05:40:37;22.10;82.00
37052;DHT22;22964;52.272;13.356;2023-07-28T05:43:02;22.10;83.00
37052;DHT22;22964;52.272;13.356;2023-07-28T05:45:28;22.10;82.00
37052;DHT22;22964;52.272;13.356;2023-07-28T05:47:54;22.10;82.10
37052;DHT22;22964;52.272;13.356;2023-07-28T05:50:20;22.10;82.10
37052;DHT22;22964;52.272;13.356;2023-07-28T05:52:45;22.10;82.10
37052;DHT22;22964;52.272;13.356;2023-07-28T05:55:12;22.20;81.90
37052;DHT22;22964;52.272;13.356;2023-07-28T05:57:39;22.10;82.00
37052;DHT22;22964;52.272;13.356;2023-07-28T06:00:07;22.20;82.00
37052;DHT22;22964;52.272;13.356;2023-07-28T06:02:44;22.20;82.00
37052;DHT22;22964;52.272;13.356;2023-07-28T06:05:21;22.20;81.90
37052;DHT22;22964;52.272;13.356;2023-07-28T06:07:47;22.20;82.00
37052;DHT22;22964;52.272;13.356;2023-07-28T06:10:13;22.20;82.00
37052;DHT22;22964;52.272;13.356;2023-07-28T06:12:38;22.20;82.20
37052;DHT22;22964;52.272;13.356;2023-07-28T06:15:05;22.20;82.10
37052;DHT22;22964;52.272;13.356;2023-07-28T06:17:30;22.20;82.20
37052;DHT22;22964;52.272;13.356;2023-07-28T06:19:56;22.20;82.30
37052;DHT22;22964;52.272;13.356;2023-07-28T06:22:22;22.20;82.20
37052;DHT22;22964;52.272;13.356;2023-07-28T06:24:48;22.30;82.30
37052;DHT22;22964;52.272;13.356;2023-07-28T06:27:14;22.30;82.30
37052;DHT22;22964;52.272;13.356;2023-07-28T06:29:40;22.30;82.30
37052;DHT22;22964;52.272;13.356;2023-07-28T06:32:06;22.30;82.20
37052;DHT22;22964;52.272;13.356;2023-07-28T06:34:32;22.30;82.30
37052;DHT22;22964;52.272;13.356;2023-07-28T06:36:58;22.30;82.30
37052;DHT22;22964;52.272;13.356;2023-07-28T06:39:24;22.30;82.20
37052;DHT22;22964;52.272;13.356;2023-07-28T06:41:52;22.30;82.20
37052;DHT22;22964;52.272;13.356;2023-07-28T06:44:18;22.30;82.30
37052;DHT22;22964;52.272;13.356;2023-07-28T06:46:45;22.40;82.50
37052;DHT22;22964;52.272;13.356;2023-07-28T06:49:10;22.40;82.60
37052;DHT22;22964;52.272;13.356;2023-07-28T06:51:36;22.40;82.70
37052;DHT22;22964;52.272;13.356;2023-07-28T06:54:02;22.50;82.90
37052;DHT22;22964;52.272;13.356;2023-07-28T06:56:28;22.50;82.80
37052;DHT22;22964;52.272;13.356;2023-07-28T06:58:54;22.50;82.80
37052;DHT22;22964;52.272;13.356;2023-07-28T07:01:20;22.60;82.90
37052;DHT22;22964;52.272;13.356;2023-07-28T07:03:47;22.60;82.80
37052;DHT22;22964;52.272;13.356;2023-07-28T07:06:13;22.70;82.70
37052;DHT22;22964;52.272;13.356;2023-07-28T07:08:38;22.70;82.50
37052;DHT22;22964;52.272;13.356;2023-07-28T07:11:04;22.80;82.50
37052;DHT22;22964;52.272;13.356;2023-07-28T07:13:31;22.80;82.30
37052;DHT22;22964;52.272;13.356;2023-07-28T07:15:57;22.90;82.20
37052;DHT22;22964;52.272;13.356;2023-07-28T07:18:23;22.90;82.20
37052;DHT22;22964;52.272;13.356;2023-07-28T07:20:48;22.90;82.10
37052;DHT22;22964;52.272;13.356;2023-07-28T07:23:14;23.00;82.10
37052;DHT22;22964;52.272;13.356;2023-07-28T07:25:40;23.00;81.90
37052;DHT22;22964;52.272;13.356;2023-07-28T07:28:06;23.10;81.80
37052;DHT22;22964;52.272;13.356;2023-07-28T07:30:34;23.20;81.90
37052;DHT22;22964;52.272;13.356;2023-07-28T07:33:00;23.20;81.60
37052;DHT22;22964;52.272;13.356;2023-07-28T07:35:26;23.20;81.30
37052;DHT22;22964;52.272;13.356;2023-07-28T07:37:51;23.30;81.30
37052;DHT22;22964;52.272;13.356;2023-07-28T07:40:17;23.40;81.20
37052;DHT22;22964;52.272;13.356;2023-07-28T07:42:47;23.30;81.10
37052;DHT22;22964;52.272;13.356;2023-07-28T07:45:13;23.40;80.90
37052;DHT22;22964;52.272;13.356;2023-07-28T07:47:40;23.40;80.60
37052;DHT22;22964;52.272;13.356;2023-07-28T07:50:07;23.50;80.60
37052;DHT22;22964;52.272;13.356;2023-07-28T07:52:35;23.50;80.70
37052;DHT22;22964;52.272;13.356;2023-07-28T07:55:02;23.50;81.00
37052;DHT22;22964;52.272;13.356;2023-07-28T07:57:28;23.60;81.40
37052;DHT22;22964;52.272;13.356;2023-07-28T07:59:54;23.60;81.60
37052;DHT22;22964;52.272;13.356;2023-07-28T08:02:20;23.70;81.90
37052;DHT22;22964;52.272;13.356;2023-07-28T08:04:45;23.80;82.00
37052;DHT22;22964;52.272;13.356;2023-07-28T08:07:11;23.90;82.00
37052;DHT22;22964;52.272;13.356;2023-07-28T08:09:37;24.00;81.40
37052;DHT22;22964;52.272;13.356;2023-07-28T08:12:03;24.20;81.60
37052;DHT22;22964;52.272;13.356;2023-07-28T08:14:29;24.30;81.40
37052;DHT22;22964;52.272;13.356;2023-07-28T08:16:54;24.40;81.50
37052;DHT22;22964;52.272;13.356;2023-07-28T08:19:21;24.60;80.60
37052;DHT22;22964;52.272;13.356;2023-07-28T08:21:47;24.70;79.00
37052;DHT22;22964;52.272;13.356;2023-07-28T08:24:13;24.80;78.20
37052;DHT22;22964;52.272;13.356;2023-07-28T08:26:39;24.90;78.30
37052;DHT22;22964;52.272;13.356;2023-07-28T08:29:04;25.00;78.70
37052;DHT22;22964;52.272;13.356;2023-07-28T08:31:30;25.10;78.60
37052;DHT22;22964;52.272;13.356;2023-07-28T08:33:58;25.20;77.90
37052;DHT22;22964;52.272;13.356;2023-07-28T08:36:23;25.30;77.20
37052;DHT22;22964;52.272;13.356;2023-07-28T08:38:49;25.40;76.90
37052;DHT22;22964;52.272;13.356;2023-07-28T08:41:17;25.50;77.30
37052;DHT22;22964;52.272;13.356;2023-07-28T08:43:42;25.60;77.00
37052;DHT22;22964;52.272;13.356;2023-07-28T08:46:09;25.80;76.20
37052;DHT22;22964;52.272;13.356;2023-07-28T08:48:35;25.90;74.90
37052;DHT22;22964;52.272;13.356;2023-07-28T08:51:03;26.00;74.10
37052;DHT22;22964;52.272;13.356;2023-07-28T08:53:34;26.00;73.60
37052;DHT22;22964;52.272;13.356;2023-07-28T08:56:00;26.00;73.10
37052;DHT22;22964;52.272;13.356;2023-07-28T08:58:26;26.00;73.30
37052;DHT22;22964;52.272;13.356;2023-07-28T09:11:32;26.00;71.20
37052;DHT22;22964;52.272;13.356;2023-07-28T09:14:00;26.10;73.30
37052;DHT22;22964;52.272;13.356;2023-07-28T09:16:26;26.10;72.20
37052;DHT22;22964;52.272;13.356;2023-07-28T09:19:08;26.10;72.20
37052;DHT22;22964;52.272;13.356;2023-07-28T09:21:34;26.10;70.50
37052;DHT22;22964;52.272;13.356;2023-07-28T09:24:03;26.10;71.50
37052;DHT22;22964;52.272;13.356;2023-07-28T09:26:44;26.10;71.00
37052;DHT22;22964;52.272;13.356;2023-07-28T09:29:20;26.00;69.60
37052;DHT22;22964;52.272;13.356;2023-07-28T09:31:49;25.90;69.80
37052;DHT22;22964;52.272;13.356;2023-07-28T09:34:26;25.80;70.00
37052;DHT22;22964;52.272;13.356;2023-07-28T09:36:54;25.60;70.50
37052;DHT22;22964;52.272;13.356;2023-07-28T09:39:20;25.50;71.30
37052;DHT22;22964;52.272;13.356;2023-07-28T09:41:46;25.40;72.00
37052;DHT22;22964;52.272;13.356;2023-07-28T09:44:13;25.30;72.20
37052;DHT22;22964;52.272;13.356;2023-07-28T09:46:54;25.30;72.50
37052;DHT22;22964;52.272;13.356;2023-07-28T09:49:25;25.20;73.10
37052;DHT22;22964;52.272;13.356;2023-07-28T09:51:54;25.10;73.30
37052;DHT22;22964;52.272;13.356;2023-07-28T09:54:29;25.10;73.60
37052;DHT22;22964;52.272;13.356;2023-07-28T09:56:56;25.00;73.70
37052;DHT22;22964;52.272;13.356;2023-07-28T09:59:29;25.00;75.00
37052;DHT22;22964;52.272;13.356;2023-07-28T10:01:58;25.00;74.20
37052;DHT22;22964;52.272;13.356;2023-07-28T10:04:24;25.10;74.30
37052;DHT22;22964;52.272;13.356;2023-07-28T10:06:52;25.10;74.00
37052;DHT22;22964;52.272;13.356;2023-07-28T10:09:26;25.10;73.80
37052;DHT22;22964;52.272;13.356;2023-07-28T10:11:53;25.10;74.00
37052;DHT22;22964;52.272;13.356;2023-07-28T10:14:34;25.10;74.40
37052;DHT22;22964;52.272;13.356;2023-07-28T10:17:03;25.00;74.60
37052;DHT22;22964;52.272;13.356;2023-07-28T10:19:36;25.00;75.00
37052;DHT22;22964;52.272;13.356;2023-07-28T10:22:10;25.10;75.40
37052;DHT22;22964;52.272;13.356;2023-07-28T10:24:56;25.10;76.50
37052;DHT22;22964;52.272;13.356;2023-07-28T10:30:01;25.40;75.60
37052;DHT22;22964;52.272;13.356;2023-07-28T10:32:44;25.60;75.60
37052;DHT22;22964;52.272;13.356;2023-07-28T10:37:39;25.80;72.90
37052;DHT22;22964;52.272;13.356;2023-07-28T10:40:24;25.90;72.80
37052;DHT22;22964;52.272;13.356;2023-07-28T10:42:51;26.00;72.00
37052;DHT22;22964;52.272;13.356;2023-07-28T10:45:17;26.00;73.20
37052;DHT22;22964;52.272;13.356;2023-07-28T10:47:44;26.10;73.60
37052;DHT22;22964;52.272;13.356;2023-07-28T10:50:11;26.20;73.90
37052;DHT22;22964;52.272;13.356;2023-07-28T10:52:43;26.30;74.20
37052;DHT22;22964;52.272;13.356;2023-07-28T10:55:20;26.40;72.40
37052;DHT22;22964;52.272;13.356;2023-07-28T10:57:48;26.60;71.80
37052;DHT22;22964;52.272;13.356;2023-07-28T11:00:17;26.80;70.60
37052;DHT22;22964;52.272;13.356;2023-07-28T11:02:44;26.90;69.90
37052;DHT22;22964;52.272;13.356;2023-07-28T11:05:13;27.10;68.80
37052;DHT22;22964;52.272;13.356;2023-07-28T11:07:43;27.10;68.10
37052;DHT22;22964;52.272;13.356;2023-07-28T11:10:13;27.20;67.20
37052;DHT22;22964;52.272;13.356;2023-07-28T11:12:44;27.30;66.70
37052;DHT22;22964;52.272;13.356;2023-07-28T11:15:13;27.30;66.00
37052;DHT22;22964;52.272;13.356;2023-07-28T11:17:41;27.30;66.00
37052;DHT22;22964;52.272;13.356;2023-07-28T11:22:53;27.40;64.80
37052;DHT22;22964;52.272;13.356;2023-07-28T11:25:19;27.40;64.50
37052;DHT22;22964;52.272;13.356;2023-07-28T11:27:47;27.50;66.20
37052;DHT22;22964;52.272;13.356;2023-07-28T11:30:14;27.50;65.70
37052;DHT22;22964;52.272;13.356;2023-07-28T11:32:43;27.60;65.10
37052;DHT22;22964;52.272;13.356;2023-07-28T11:35:11;27.70;64.20
37052;DHT22;22964;52.272;13.356;2023-07-28T11:37:43;27.80;64.30
37052;DHT22;22964;52.272;13.356;2023-07-28T11:40:10;28.00;63.00
37052;DHT22;22964;52.272;13.356;2023-07-28T11:42:41;28.10;63.10
37052;DHT22;22964;52.272;13.356;2023-07-28T11:45:07;28.30;63.10
37052;DHT22;22964;52.272;13.356;2023-07-28T11:47:34;28.40;63.80
37052;DHT22;22964;52.272;13.356;2023-07-28T11:49:59;28.60;62.90
37052;DHT22;22964;52.272;13.356;2023-07-28T11:52:46;28.80;61.80
37052;DHT22;22964;52.272;13.356;2023-07-28T11:55:11;29.00;59.80
37052;DHT22;22964;52.272;13.356;2023-07-28T11:57:37;29.20;60.30
37052;DHT22;22964;52.272;13.356;2023-07-28T12:00:04;29.20;59.00
37052;DHT22;22964;52.272;13.356;2023-07-28T12:02:33;29.30;57.90
37052;DHT22;22964;52.272;13.356;2023-07-28T12:04:59;29.30;57.50
37052;DHT22;22964;52.272;13.356;2023-07-28T12:07:32;29.30;57.60
37052;DHT22;22964;52.272;13.356;2023-07-28T12:10:03;29.30;57.10
37052;DHT22;22964;52.272;13.356;2023-07-28T12:12:38;29.30;57.80
37052;DHT22;22964;52.272;13.356;2023-07-28T12:20:37;29.50;56.90
37052;DHT22;22964;52.272;13.356;2023-07-28T12:23:04;29.60;57.00
37052;DHT22;22964;52.272;13.356;2023-07-28T12:25:31;29.70;57.30
37052;DHT22;22964;52.272;13.356;2023-07-28T12:27:57;29.80;55.90
37052;DHT22;22964;52.272;13.356;2023-07-28T12:30:23;29.90;56.10
37052;DHT22;22964;52.272;13.356;2023-07-28T12:32:48;30.00;56.00
37052;DHT22;22964;52.272;13.356;2023-07-28T12:35:14;30.10;55.40
37052;DHT22;22964;52.272;13.356;2023-07-28T12:37:40;30.10;54.40
37052;DHT22;22964;52.272;13.356;2023-07-28T12:40:07;30.20;54.60
37052;DHT22;22964;52.272;13.356;2023-07-28T12:42:34;30.20;54.00
37052;DHT22;22964;52.272;13.356;2023-07-28T12:45:00;30.20;54.40
37052;DHT22;22964;52.272;13.356;2023-07-28T12:47:25;30.10;53.90
37052;DHT22;22964;52.272;13.356;2023-07-28T12:49:51;30.00;53.90
37052;DHT22;22964;52.272;13.356;2023-07-28T12:52:17;29.90;53.00
37052;DHT22;22964;52.272;13.356;2023-07-28T12:54:43;29.80;53.30
37052;DHT22;22964;52.272;13.356;2023-07-28T12:57:09;29.70;53.80
37052;DHT22;22964;52.272;13.356;2023-07-28T12:59:38;29.60;53.80
37052;DHT22;22964;52.272;13.356;2023-07-28T13:02:04;29.50;53.70
37052;DHT22;22964;52.272;13.356;2023-07-28T13:04:29;29.40;54.50
37052;DHT22;22964;52.272;13.356;2023-07-28T13:06:55;29.30;55.50
37052;DHT22;22964;52.272;13.356;2023-07-28T13:09:21;29.20;56.20
37052;DHT22;22964;52.272;13.356;2023-07-28T13:11:46;29.20;56.60
37052;DHT22;22964;52.272;13.356;2023-07-28T13:14:12;29.10;56.90
37052;DHT22;22964;52.272;13.356;2023-07-28T13:16:38;29.00;57.20
37052;DHT22;22964;52.272;13.356;2023-07-28T13:19:04;28.90;57.40
37052;DHT22;22964;52.272;13.356;2023-07-28T13:21:31;28.80;57.40
37052;DHT22;22964;52.272;13.356;2023-07-28T13:23:56;28.60;57.50
37052;DHT22;22964;52.272;13.356;2023-07-28T13:26:22;28.50;57.60
37052;DHT22;22964;52.272;13.356;2023-07-28T13:28:48;28.30;57.60
37052;DHT22;22964;52.272;13.356;2023-07-28T13:31:15;28.10;57.90
37052;DHT22;22964;52.272;13.356;2023-07-28T13:33:42;27.90;58.10
37052;DHT22;22964;52.272;13.356;2023-07-28T13:36:08;27.70;58.60
37052;DHT22;22964;52.272;13.356;2023-07-28T13:38:34;27.50;59.40
37052;DHT22;22964;52.272;13.356;2023-07-28T13:41:03;27.30;60.70
37052;DHT22;22964;52.272;13.356;2023-07-28T13:43:28;27.10;61.90
37052;DHT22;22964;52.272;13.356;2023-07-28T13:45:54;27.10;62.80
37052;DHT22;22964;52.272;13.356;2023-07-28T13:48:20;27.00;64.00
37052;DHT22;22964;52.272;13.356;2023-07-28T13:50:46;27.00;65.50
37052;DHT22;22964;52.272;13.356;2023-07-28T13:53:12;27.00;66.00
37052;DHT22;22964;52.272;13.356;2023-07-28T13:55:38;27.10;66.70
37052;DHT22;22964;52.272;13.356;2023-07-28T13:58:04;27.30;67.50
37052;DHT22;22964;52.272;13.356;2023-07-28T14:00:30;27.40;67.10
37052;DHT22;22964;52.272;13.356;2023-07-28T14:02:55;27.60;67.00
37052;DHT22;22964;52.272;13.356;2023-07-28T14:05:21;27.80;66.10
37052;DHT22;22964;52.272;13.356;2023-07-28T14:07:48;27.90;64.50
37052;DHT22;22964;52.272;13.356;2023-07-28T14:10:14;28.00;64.10
37052;DHT22;22964;52.272;13.356;2023-07-28T14:12:39;28.20;63.70
37052;DHT22;22964;52.272;13.356;2023-07-28T14:15:07;28.20;63.70
37052;DHT22;22964;52.272;13.356;2023-07-28T14:17:33;28.30;63.80
37052;DHT22;22964;52.272;13.356;2023-07-28T14:19:59;28.40;63.40
37052;DHT22;22964;52.272;13.356;2023-07-28T14:22:25;28.40;62.80
37052;DHT22;22964;52.272;13.356;2023-07-28T14:24:50;28.50;62.20
37052;DHT22;22964;52.272;13.356;2023-07-28T14:27:16;28.50;62.00
37052;DHT22;22964;52.272;13.356;2023-07-28T14:29:42;28.50;61.80
37052;DHT22;22964;52.272;13.356;2023-07-28T14:32:08;28.50;62.90
37052;DHT22;22964;52.272;13.356;2023-07-28T14:34:34;28.60;63.80
37052;DHT22;22964;52.272;13.356;2023-07-28T14:37:06;28.70;63.60
37052;DHT22;22964;52.272;13.356;2023-07-28T14:39:32;28.80;63.00
37052;DHT22;22964;52.272;13.356;2023-07-28T14:41:57;29.00;63.50
37052;DHT22;22964;52.272;13.356;2023-07-28T14:44:23;29.20;62.20
37052;DHT22;22964;52.272;13.356;2023-07-28T14:46:49;29.30;61.00
37052;DHT22;22964;52.272;13.356;2023-07-28T14:49:15;29.40;61.30
37052;DHT22;22964;52.272;13.356;2023-07-28T14:51:40;29.50;60.90
37052;DHT22;22964;52.272;13.356;2023-07-28T14:54:06;29.60;60.00
37052;DHT22;22964;52.272;13.356;2023-07-28T14:56:32;29.70;59.30
37052;DHT22;22964;52.272;13.356;2023-07-28T14:58:58;29.70;58.50
37052;DHT22;22964;52.272;13.356;2023-07-28T15:01:26;29.70;58.10
37052;DHT22;22964;52.272;13.356;2023-07-28T15:03:52;29.60;58.00
37052;DHT22;22964;52.272;13.356;2023-07-28T15:06:18;29.60;57.80
37052;DHT22;22964;52.272;13.356;2023-07-28T15:08:43;29.50;57.70
37052;DHT22;22964;52.272;13.356;2023-07-28T15:11:09;29.50;57.50
37052;DHT22;22964;52.272;13.356;2023-07-28T15:13:35;29.40;57.10
37052;DHT22;22964;52.272;13.356;2023-07-28T15:16:01;29.30;56.90
37052;DHT22;22964;52.272;13.356;2023-07-28T15:18:27;29.20;56.80
37052;DHT22;22964;52.272;13.356;2023-07-28T15:20:52;29.00;56.70
37052;DHT22;22964;52.272;13.356;2023-07-28T15:23:22;28.90;57.00
37052;DHT22;22964;52.272;13.356;2023-07-28T15:25:48;28.80;56.60
37052;DHT22;22964;52.272;13.356;2023-07-28T15:28:14;28.60;56.90
37052;DHT22;22964;52.272;13.356;2023-07-28T15:30:40;28.50;57.10
37052;DHT22;22964;52.272;13.356;2023-07-28T15:33:07;28.40;57.60
37052;DHT22;22964;52.272;13.356;2023-07-28T15:35:33;28.30;57.70
37052;DHT22;22964;52.272;13.356;2023-07-28T15:38:00;28.20;58.10
37052;DHT22;22964;52.272;13.356;2023-07-28T15:40:26;28.10;58.50
37052;DHT22;22964;52.272;13.356;2023-07-28T15:42:52;28.00;59.90